Terminal Aerodrome Forecast
Issued by NWS

Home | Current Version | Previous Version | Text Only | Print | Product List | Glossary On
Versions: 1 2 3 4 5 6 7 8 9 10 11 12 13 14 15 16 17 18 19 20 21
371
FTUS46 KMFR 211147
TAFRBG
TAF
KRBG 211147Z 2112/2212 08006KT P6SM -RA SCT040 OVC060
     FM211400 17010KT 4SM RA OVC020 WS020/21040KT
     FM212100 17010KT P6SM -SHRA SCT015 OVC025
     FM220600 17006KT P6SM OVC050=

USA.gov is the U.S. government's official web portal to all federal, state and local government web resources and services.